sensor_id;sensor_type;location;lat;lon;timestamp;P1;durP1;ratioP1;P2;durP2;ratioP2
30617;SDS011;17384;51.214;9.202;2023-08-31T00:02:02;9.18;;;6.75;;
30617;SDS011;17384;51.214;9.202;2023-08-31T00:04:28;7.90;;;6.45;;
30617;SDS011;17384;51.214;9.202;2023-08-31T00:06:54;11.00;;;6.72;;
30617;SDS011;17384;51.214;9.202;2023-08-31T00:09:22;19.52;;;8.10;;
30617;SDS011;17384;51.214;9.202;2023-08-31T00:11:49;8.23;;;5.75;;
30617;SDS011;17384;51.214;9.202;2023-08-31T00:14:15;6.47;;;4.97;;
30617;SDS011;17384;51.214;9.202;2023-08-31T00:16:40;7.80;;;5.43;;
30617;SDS011;17384;51.214;9.202;2023-08-31T00:19:06;6.15;;;5.10;;
30617;SDS011;17384;51.214;9.202;2023-08-31T00:21:31;6.07;;;5.10;;
30617;SDS011;17384;51.214;9.202;2023-08-31T00:23:58;8.35;;;5.60;;
30617;SDS011;17384;51.214;9.202;2023-08-31T00:26:24;7.00;;;5.55;;
30617;SDS011;17384;51.214;9.202;2023-08-31T00:28:50;6.13;;;4.95;;
30617;SDS011;17384;51.214;9.202;2023-08-31T00:31:15;8.05;;;5.65;;
30617;SDS011;17384;51.214;9.202;2023-08-31T00:33:40;11.23;;;7.55;;
30617;SDS011;17384;51.214;9.202;2023-08-31T00:36:06;8.13;;;6.28;;
30617;SDS011;17384;51.214;9.202;2023-08-31T00:38:32;8.23;;;6.43;;
30617;SDS011;17384;51.214;9.202;2023-08-31T00:40:58;10.18;;;6.63;;
30617;SDS011;17384;51.214;9.202;2023-08-31T00:43:24;13.15;;;9.13;;
30617;SDS011;17384;51.214;9.202;2023-08-31T00:45:50;10.95;;;7.43;;
30617;SDS011;17384;51.214;9.202;2023-08-31T00:48:22;8.45;;;6.13;;
30617;SDS011;17384;51.214;9.202;2023-08-31T00:50:47;9.93;;;7.68;;
30617;SDS011;17384;51.214;9.202;2023-08-31T00:53:14;16.67;;;8.98;;
30617;SDS011;17384;51.214;9.202;2023-08-31T00:55:40;16.35;;;8.50;;
30617;SDS011;17384;51.214;9.202;2023-08-31T00:58:06;14.88;;;9.02;;
30617;SDS011;17384;51.214;9.202;2023-08-31T01:03:50;15.40;;;9.65;;
30617;SDS011;17384;51.214;9.202;2023-08-31T01:06:46;16.52;;;9.88;;
30617;SDS011;17384;51.214;9.202;2023-08-31T01:12:11;15.43;;;8.55;;
30617;SDS011;17384;51.214;9.202;2023-08-31T01:14:56;11.98;;;8.77;;
30617;SDS011;17384;51.214;9.202;2023-08-31T01:17:24;13.25;;;8.40;;
30617;SDS011;17384;51.214;9.202;2023-08-31T01:19:54;11.05;;;8.15;;
30617;SDS011;17384;51.214;9.202;2023-08-31T01:24:50;14.07;;;10.52;;
30617;SDS011;17384;51.214;9.202;2023-08-31T01:27:16;11.20;;;8.27;;
30617;SDS011;17384;51.214;9.202;2023-08-31T01:29:42;11.63;;;8.82;;
30617;SDS011;17384;51.214;9.202;2023-08-31T01:32:07;12.23;;;8.52;;
30617;SDS011;17384;51.214;9.202;2023-08-31T01:34:33;10.98;;;8.65;;
30617;SDS011;17384;51.214;9.202;2023-08-31T01:37:03;13.85;;;9.30;;
30617;SDS011;17384;51.214;9.202;2023-08-31T01:42:13;10.35;;;8.30;;
30617;SDS011;17384;51.214;9.202;2023-08-31T01:44:41;14.18;;;9.05;;
30617;SDS011;17384;51.214;9.202;2023-08-31T01:47:09;14.52;;;10.60;;
30617;SDS011;17384;51.214;9.202;2023-08-31T01:49:39;13.90;;;10.25;;
30617;SDS011;17384;51.214;9.202;2023-08-31T01:52:04;12.85;;;9.10;;
30617;SDS011;17384;51.214;9.202;2023-08-31T01:54:31;16.23;;;10.27;;
30617;SDS011;17384;51.214;9.202;2023-08-31T01:56:57;13.35;;;9.27;;
30617;SDS011;17384;51.214;9.202;2023-08-31T01:59:22;16.55;;;9.77;;
30617;SDS011;17384;51.214;9.202;2023-08-31T02:01:48;16.23;;;9.85;;
30617;SDS011;17384;51.214;9.202;2023-08-31T02:04:13;14.30;;;9.05;;
30617;SDS011;17384;51.214;9.202;2023-08-31T02:06:39;13.77;;;9.23;;
30617;SDS011;17384;51.214;9.202;2023-08-31T02:09:04;14.35;;;10.82;;
30617;SDS011;17384;51.214;9.202;2023-08-31T02:11:30;13.07;;;9.00;;
30617;SDS011;17384;51.214;9.202;2023-08-31T02:13:57;14.90;;;9.57;;
30617;SDS011;17384;51.214;9.202;2023-08-31T02:16:23;15.98;;;9.50;;
30617;SDS011;17384;51.214;9.202;2023-08-31T02:18:49;18.08;;;10.85;;
30617;SDS011;17384;51.214;9.202;2023-08-31T02:21:14;19.50;;;10.38;;
30617;SDS011;17384;51.214;9.202;2023-08-31T02:23:40;14.73;;;10.70;;
30617;SDS011;17384;51.214;9.202;2023-08-31T02:26:05;19.02;;;11.25;;
30617;SDS011;17384;51.214;9.202;2023-08-31T02:28:31;15.70;;;10.25;;
30617;SDS011;17384;51.214;9.202;2023-08-31T02:31:00;15.82;;;9.75;;
30617;SDS011;17384;51.214;9.202;2023-08-31T02:33:27;12.07;;;9.13;;
30617;SDS011;17384;51.214;9.202;2023-08-31T02:35:54;12.85;;;9.25;;
30617;SDS011;17384;51.214;9.202;2023-08-31T02:38:20;12.10;;;8.30;;
30617;SDS011;17384;51.214;9.202;2023-08-31T02:40:46;8.40;;;6.53;;
30617;SDS011;17384;51.214;9.202;2023-08-31T02:43:13;10.60;;;7.93;;
30617;SDS011;17384;51.214;9.202;2023-08-31T02:45:39;13.45;;;9.70;;
30617;SDS011;17384;51.214;9.202;2023-08-31T02:48:06;65.07;;;11.23;;
30617;SDS011;17384;51.214;9.202;2023-08-31T02:50:33;10.45;;;8.40;;
30617;SDS011;17384;51.214;9.202;2023-08-31T02:52:59;11.95;;;8.88;;
30617;SDS011;17384;51.214;9.202;2023-08-31T02:55:25;17.80;;;10.15;;
30617;SDS011;17384;51.214;9.202;2023-08-31T02:57:50;15.70;;;10.93;;
30617;SDS011;17384;51.214;9.202;2023-08-31T03:00:16;25.95;;;10.15;;
30617;SDS011;17384;51.214;9.202;2023-08-31T03:02:42;18.63;;;12.23;;
30617;SDS011;17384;51.214;9.202;2023-08-31T03:05:08;18.90;;;12.25;;
30617;SDS011;17384;51.214;9.202;2023-08-31T03:07:34;20.88;;;12.60;;
30617;SDS011;17384;51.214;9.202;2023-08-31T03:09:59;20.65;;;13.10;;
30617;SDS011;17384;51.214;9.202;2023-08-31T03:12:25;17.92;;;11.90;;
30617;SDS011;17384;51.214;9.202;2023-08-31T03:14:50;15.07;;;10.43;;
30617;SDS011;17384;51.214;9.202;2023-08-31T03:17:15;19.95;;;12.57;;
30617;SDS011;17384;51.214;9.202;2023-08-31T03:19:41;21.17;;;12.32;;
30617;SDS011;17384;51.214;9.202;2023-08-31T03:22:06;18.02;;;12.52;;
30617;SDS011;17384;51.214;9.202;2023-08-31T03:24:32;20.05;;;12.38;;
30617;SDS011;17384;51.214;9.202;2023-08-31T03:26:58;23.55;;;12.57;;
30617;SDS011;17384;51.214;9.202;2023-08-31T03:29:23;17.10;;;11.52;;
30617;SDS011;17384;51.214;9.202;2023-08-31T03:31:49;19.45;;;12.75;;
30617;SDS011;17384;51.214;9.202;2023-08-31T03:34:14;23.95;;;13.02;;
30617;SDS011;17384;51.214;9.202;2023-08-31T03:36:40;20.95;;;13.27;;
30617;SDS011;17384;51.214;9.202;2023-08-31T03:39:05;26.95;;;14.48;;
30617;SDS011;17384;51.214;9.202;2023-08-31T03:41:31;25.90;;;15.10;;
30617;SDS011;17384;51.214;9.202;2023-08-31T03:43:56;23.70;;;14.02;;
30617;SDS011;17384;51.214;9.202;2023-08-31T03:46:22;26.75;;;16.80;;
30617;SDS011;17384;51.214;9.202;2023-08-31T03:48:47;29.45;;;17.02;;
30617;SDS011;17384;51.214;9.202;2023-08-31T03:51:13;24.95;;;16.08;;
30617;SDS011;17384;51.214;9.202;2023-08-31T03:53:39;35.40;;;16.98;;
30617;SDS011;17384;51.214;9.202;2023-08-31T03:56:04;24.58;;;15.98;;
30617;SDS011;17384;51.214;9.202;2023-08-31T03:58:30;31.25;;;17.00;;
30617;SDS011;17384;51.214;9.202;2023-08-31T04:00:55;31.50;;;16.63;;
30617;SDS011;17384;51.214;9.202;2023-08-31T04:03:21;26.17;;;14.65;;
30617;SDS011;17384;51.214;9.202;2023-08-31T04:05:47;24.75;;;15.50;;
30617;SDS011;17384;51.214;9.202;2023-08-31T04:08:12;26.88;;;15.32;;
30617;SDS011;17384;51.214;9.202;2023-08-31T04:10:38;23.30;;;14.98;;
30617;SDS011;17384;51.214;9.202;2023-08-31T04:13:03;18.65;;;13.00;;
30617;SDS011;17384;51.214;9.202;2023-08-31T04:15:29;32.20;;;14.40;;
30617;SDS011;17384;51.214;9.202;2023-08-31T04:17:55;23.65;;;14.07;;
30617;SDS011;17384;51.214;9.202;2023-08-31T04:20:21;29.23;;;16.48;;
30617;SDS011;17384;51.214;9.202;2023-08-31T04:22:47;28.75;;;15.65;;
30617;SDS011;17384;51.214;9.202;2023-08-31T04:25:12;23.70;;;14.65;;
30617;SDS011;17384;51.214;9.202;2023-08-31T04:27:38;26.27;;;15.80;;
30617;SDS011;17384;51.214;9.202;2023-08-31T04:30:05;24.52;;;13.52;;
30617;SDS011;17384;51.214;9.202;2023-08-31T04:32:32;20.60;;;13.27;;
30617;SDS011;17384;51.214;9.202;2023-08-31T04:34:57;31.55;;;15.15;;
30617;SDS011;17384;51.214;9.202;2023-08-31T04:37:23;26.90;;;15.90;;
30617;SDS011;17384;51.214;9.202;2023-08-31T04:39:49;21.75;;;15.07;;
30617;SDS011;17384;51.214;9.202;2023-08-31T04:42:14;29.92;;;15.82;;
30617;SDS011;17384;51.214;9.202;2023-08-31T04:44:42;27.23;;;15.70;;
30617;SDS011;17384;51.214;9.202;2023-08-31T04:47:07;23.88;;;15.45;;
30617;SDS011;17384;51.214;9.202;2023-08-31T04:49:33;22.25;;;15.18;;
30617;SDS011;17384;51.214;9.202;2023-08-31T04:51:58;26.63;;;16.15;;
30617;SDS011;17384;51.214;9.202;2023-08-31T04:54:23;29.98;;;16.00;;
30617;SDS011;17384;51.214;9.202;2023-08-31T04:56:50;35.55;;;16.92;;
30617;SDS011;17384;51.214;9.202;2023-08-31T04:59:16;28.75;;;18.02;;
30617;SDS011;17384;51.214;9.202;2023-08-31T05:01:41;26.77;;;17.23;;
30617;SDS011;17384;51.214;9.202;2023-08-31T05:04:06;28.05;;;17.10;;
30617;SDS011;17384;51.214;9.202;2023-08-31T05:06:32;28.48;;;16.80;;
30617;SDS011;17384;51.214;9.202;2023-08-31T05:08:57;30.30;;;17.33;;
30617;SDS011;17384;51.214;9.202;2023-08-31T05:11:23;25.10;;;17.15;;
30617;SDS011;17384;51.214;9.202;2023-08-31T05:13:48;30.00;;;18.38;;
30617;SDS011;17384;51.214;9.202;2023-08-31T05:16:14;23.98;;;16.48;;
30617;SDS011;17384;51.214;9.202;2023-08-31T05:18:39;25.42;;;18.10;;
30617;SDS011;17384;51.214;9.202;2023-08-31T05:21:07;29.65;;;17.10;;
30617;SDS011;17384;51.214;9.202;2023-08-31T05:23:33;31.83;;;16.98;;
30617;SDS011;17384;51.214;9.202;2023-08-31T05:25:59;32.53;;;16.75;;
30617;SDS011;17384;51.214;9.202;2023-08-31T05:28:26;28.30;;;16.50;;
30617;SDS011;17384;51.214;9.202;2023-08-31T05:30:52;25.27;;;16.23;;
30617;SDS011;17384;51.214;9.202;2023-08-31T05:33:20;26.52;;;16.15;;
30617;SDS011;17384;51.214;9.202;2023-08-31T05:35:47;25.98;;;16.25;;
30617;SDS011;17384;51.214;9.202;2023-08-31T05:38:13;28.90;;;16.63;;
30617;SDS011;17384;51.214;9.202;2023-08-31T05:40:39;25.60;;;17.50;;
30617;SDS011;17384;51.214;9.202;2023-08-31T05:43:10;25.23;;;15.15;;
30617;SDS011;17384;51.214;9.202;2023-08-31T05:45:36;26.95;;;16.20;;
30617;SDS011;17384;51.214;9.202;2023-08-31T05:48:01;22.33;;;13.95;;
30617;SDS011;17384;51.214;9.202;2023-08-31T05:50:27;24.25;;;13.73;;
30617;SDS011;17384;51.214;9.202;2023-08-31T05:52:54;22.35;;;14.30;;
30617;SDS011;17384;51.214;9.202;2023-08-31T05:55:20;24.38;;;14.07;;
30617;SDS011;17384;51.214;9.202;2023-08-31T05:57:45;22.17;;;14.52;;
30617;SDS011;17384;51.214;9.202;2023-08-31T06:00:11;20.92;;;13.88;;
30617;SDS011;17384;51.214;9.202;2023-08-31T06:02:37;19.05;;;13.98;;
30617;SDS011;17384;51.214;9.202;2023-08-31T06:05:02;17.48;;;11.98;;
30617;SDS011;17384;51.214;9.202;2023-08-31T06:07:29;22.10;;;13.30;;
30617;SDS011;17384;51.214;9.202;2023-08-31T06:09:55;19.20;;;13.73;;
30617;SDS011;17384;51.214;9.202;2023-08-31T06:12:21;19.48;;;12.90;;
30617;SDS011;17384;51.214;9.202;2023-08-31T06:14:47;17.10;;;13.02;;
30617;SDS011;17384;51.214;9.202;2023-08-31T06:17:12;22.08;;;13.32;;
30617;SDS011;17384;51.214;9.202;2023-08-31T06:19:41;17.25;;;12.23;;
30617;SDS011;17384;51.214;9.202;2023-08-31T06:22:07;18.17;;;12.27;;
30617;SDS011;17384;51.214;9.202;2023-08-31T06:24:33;16.42;;;11.60;;
30617;SDS011;17384;51.214;9.202;2023-08-31T06:26:59;19.30;;;12.68;;
30617;SDS011;17384;51.214;9.202;2023-08-31T06:29:24;15.38;;;11.93;;
30617;SDS011;17384;51.214;9.202;2023-08-31T06:31:50;15.07;;;10.73;;
30617;SDS011;17384;51.214;9.202;2023-08-31T06:34:16;18.17;;;10.73;;
30617;SDS011;17384;51.214;9.202;2023-08-31T06:36:41;15.30;;;11.25;;
30617;SDS011;17384;51.214;9.202;2023-08-31T06:39:07;14.80;;;10.98;;
30617;SDS011;17384;51.214;9.202;2023-08-31T06:41:32;18.20;;;10.82;;
30617;SDS011;17384;51.214;9.202;2023-08-31T06:43:58;14.98;;;10.60;;
30617;SDS011;17384;51.214;9.202;2023-08-31T06:46:24;15.93;;;10.70;;
30617;SDS011;17384;51.214;9.202;2023-08-31T06:48:49;18.92;;;11.18;;
30617;SDS011;17384;51.214;9.202;2023-08-31T06:51:15;13.52;;;9.32;;
30617;SDS011;17384;51.214;9.202;2023-08-31T06:53:43;15.73;;;11.27;;
30617;SDS011;17384;51.214;9.202;2023-08-31T06:56:09;13.70;;;10.27;;
30617;SDS011;17384;51.214;9.202;2023-08-31T06:58:35;19.17;;;10.35;;
30617;SDS011;17384;51.214;9.202;2023-08-31T07:01:00;19.48;;;10.65;;
30617;SDS011;17384;51.214;9.202;2023-08-31T07:03:26;12.13;;;8.63;;
30617;SDS011;17384;51.214;9.202;2023-08-31T07:05:52;11.93;;;8.15;;
30617;SDS011;17384;51.214;9.202;2023-08-31T07:08:17;13.57;;;8.57;;
30617;SDS011;17384;51.214;9.202;2023-08-31T07:10:43;8.48;;;6.60;;
30617;SDS011;17384;51.214;9.202;2023-08-31T07:13:08;10.00;;;7.28;;
30617;SDS011;17384;51.214;9.202;2023-08-31T07:15:33;14.15;;;8.07;;
30617;SDS011;17384;51.214;9.202;2023-08-31T07:17:59;10.38;;;6.82;;
30617;SDS011;17384;51.214;9.202;2023-08-31T07:20:25;13.63;;;6.78;;
30617;SDS011;17384;51.214;9.202;2023-08-31T07:22:50;10.70;;;6.50;;
30617;SDS011;17384;51.214;9.202;2023-08-31T07:25:16;13.50;;;6.32;;
30617;SDS011;17384;51.214;9.202;2023-08-31T07:27:41;11.85;;;6.07;;
30617;SDS011;17384;51.214;9.202;2023-08-31T07:30:07;11.45;;;5.90;;
30617;SDS011;17384;51.214;9.202;2023-08-31T07:32:33;8.27;;;5.90;;
30617;SDS011;17384;51.214;9.202;2023-08-31T07:34:58;8.02;;;5.57;;
30617;SDS011;17384;51.214;9.202;2023-08-31T07:37:24;12.25;;;5.82;;
30617;SDS011;17384;51.214;9.202;2023-08-31T07:39:50;7.13;;;4.90;;
30617;SDS011;17384;51.214;9.202;2023-08-31T07:42:16;10.27;;;4.80;;
30617;SDS011;17384;51.214;9.202;2023-08-31T07:44:41;9.35;;;5.20;;
30617;SDS011;17384;51.214;9.202;2023-08-31T07:47:08;8.63;;;4.70;;
30617;SDS011;17384;51.214;9.202;2023-08-31T07:49:33;11.52;;;4.85;;
30617;SDS011;17384;51.214;9.202;2023-08-31T07:51:59;7.53;;;5.65;;
30617;SDS011;17384;51.214;9.202;2023-08-31T07:54:24;9.13;;;5.50;;
30617;SDS011;17384;51.214;9.202;2023-08-31T07:56:50;10.23;;;5.13;;
30617;SDS011;17384;51.214;9.202;2023-08-31T07:59:17;9.25;;;4.75;;
30617;SDS011;17384;51.214;9.202;2023-08-31T08:01:43;7.05;;;5.25;;
30617;SDS011;17384;51.214;9.202;2023-08-31T08:04:08;9.20;;;4.40;;
30617;SDS011;17384;51.214;9.202;2023-08-31T08:06:35;11.85;;;6.43;;
30617;SDS011;17384;51.214;9.202;2023-08-31T08:09:01;11.32;;;4.90;;
30617;SDS011;17384;51.214;9.202;2023-08-31T08:11:27;13.60;;;5.30;;
30617;SDS011;17384;51.214;9.202;2023-08-31T08:13:52;8.13;;;4.85;;
30617;SDS011;17384;51.214;9.202;2023-08-31T08:16:17;8.77;;;4.95;;
30617;SDS011;17384;51.214;9.202;2023-08-31T08:18:43;6.97;;;3.83;;
30617;SDS011;17384;51.214;9.202;2023-08-31T08:21:08;8.98;;;4.32;;
30617;SDS011;17384;51.214;9.202;2023-08-31T08:23:34;8.18;;;3.60;;
30617;SDS011;17384;51.214;9.202;2023-08-31T08:25:59;6.18;;;4.10;;
30617;SDS011;17384;51.214;9.202;2023-08-31T08:28:25;9.18;;;4.60;;
30617;SDS011;17384;51.214;9.202;2023-08-31T08:30:51;6.32;;;3.60;;
30617;SDS011;17384;51.214;9.202;2023-08-31T08:33:16;5.57;;;3.53;;
30617;SDS011;17384;51.214;9.202;2023-08-31T08:35:42;6.13;;;3.80;;
30617;SDS011;17384;51.214;9.202;2023-08-31T08:38:07;7.80;;;4.05;;
30617;SDS011;17384;51.214;9.202;2023-08-31T08:40:34;5.35;;;3.20;;
30617;SDS011;17384;51.214;9.202;2023-08-31T08:43:00;8.45;;;3.00;;
30617;SDS011;17384;51.214;9.202;2023-08-31T08:45:27;7.28;;;3.05;;
30617;SDS011;17384;51.214;9.202;2023-08-31T08:48:01;7.13;;;3.40;;
30617;SDS011;17384;51.214;9.202;2023-08-31T08:50:29;4.88;;;3.13;;
30617;SDS011;17384;51.214;9.202;2023-08-31T08:52:59;7.40;;;3.60;;
30617;SDS011;17384;51.214;9.202;2023-08-31T08:55:25;4.03;;;3.30;;
30617;SDS011;17384;51.214;9.202;2023-08-31T08:57:50;6.80;;;2.90;;
30617;SDS011;17384;51.214;9.202;2023-08-31T09:00:15;5.57;;;2.92;;
30617;SDS011;17384;51.214;9.202;2023-08-31T09:02:41;6.63;;;3.15;;
30617;SDS011;17384;51.214;9.202;2023-08-31T09:05:07;5.43;;;3.55;;
30617;SDS011;17384;51.214;9.202;2023-08-31T09:07:36;5.43;;;3.22;;
30617;SDS011;17384;51.214;9.202;2023-08-31T09:10:02;7.13;;;3.45;;
30617;SDS011;17384;51.214;9.202;2023-08-31T09:12:29;4.60;;;3.20;;
30617;SDS011;17384;51.214;9.202;2023-08-31T09:15:01;4.38;;;3.20;;
30617;SDS011;17384;51.214;9.202;2023-08-31T09:17:38;4.13;;;2.40;;
30617;SDS011;17384;51.214;9.202;2023-08-31T09:20:05;8.55;;;3.03;;
30617;SDS011;17384;51.214;9.202;2023-08-31T09:22:32;6.10;;;3.22;;
30617;SDS011;17384;51.214;9.202;2023-08-31T09:24:58;7.82;;;3.10;;
30617;SDS011;17384;51.214;9.202;2023-08-31T09:27:24;5.40;;;3.65;;
30617;SDS011;17384;51.214;9.202;2023-08-31T09:29:50;5.68;;;3.15;;
30617;SDS011;17384;51.214;9.202;2023-08-31T09:32:16;7.63;;;4.03;;
30617;SDS011;17384;51.214;9.202;2023-08-31T09:34:45;3.95;;;2.63;;
30617;SDS011;17384;51.214;9.202;2023-08-31T09:37:11;7.05;;;3.38;;
30617;SDS011;17384;51.214;9.202;2023-08-31T09:39:37;7.60;;;3.30;;
30617;SDS011;17384;51.214;9.202;2023-08-31T09:42:04;3.95;;;2.65;;
30617;SDS011;17384;51.214;9.202;2023-08-31T09:44:29;9.00;;;3.13;;
30617;SDS011;17384;51.214;9.202;2023-08-31T09:47:03;5.30;;;2.72;;
30617;SDS011;17384;51.214;9.202;2023-08-31T09:49:29;5.18;;;2.80;;
30617;SDS011;17384;51.214;9.202;2023-08-31T09:51:55;3.17;;;2.55;;
30617;SDS011;17384;51.214;9.202;2023-08-31T09:54:23;4.32;;;3.35;;
30617;SDS011;17384;51.214;9.202;2023-08-31T09:56:51;6.90;;;2.78;;
30617;SDS011;17384;51.214;9.202;2023-08-31T09:59:20;5.10;;;2.63;;
30617;SDS011;17384;51.214;9.202;2023-08-31T10:01:47;6.38;;;3.15;;
30617;SDS011;17384;51.214;9.202;2023-08-31T10:04:13;8.18;;;4.07;;
30617;SDS011;17384;51.214;9.202;2023-08-31T10:06:39;8.70;;;3.40;;
30617;SDS011;17384;51.214;9.202;2023-08-31T10:09:05;6.50;;;3.15;;
30617;SDS011;17384;51.214;9.202;2023-08-31T10:11:31;6.25;;;3.50;;
30617;SDS011;17384;51.214;9.202;2023-08-31T10:13:58;4.80;;;3.17;;
30617;SDS011;17384;51.214;9.202;2023-08-31T10:16:27;7.35;;;3.00;;
30617;SDS011;17384;51.214;9.202;2023-08-31T10:18:54;4.78;;;3.60;;
30617;SDS011;17384;51.214;9.202;2023-08-31T10:21:20;3.40;;;2.80;;
30617;SDS011;17384;51.214;9.202;2023-08-31T10:23:47;7.28;;;2.72;;
30617;SDS011;17384;51.214;9.202;2023-08-31T10:26:22;5.47;;;2.70;;
30617;SDS011;17384;51.214;9.202;2023-08-31T10:28:55;4.10;;;2.67;;
30617;SDS011;17384;51.214;9.202;2023-08-31T10:31:22;5.03;;;2.80;;
30617;SDS011;17384;51.214;9.202;2023-08-31T10:34:21;10.02;;;2.75;;
30617;SDS011;17384;51.214;9.202;2023-08-31T10:36:44;3.88;;;2.30;;
30617;SDS011;17384;51.214;9.202;2023-08-31T10:39:14;8.20;;;2.95;;
30617;SDS011;17384;51.214;9.202;2023-08-31T10:41:56;12.77;;;3.20;;
30617;SDS011;17384;51.214;9.202;2023-08-31T10:44:23;5.97;;;3.03;;
30617;SDS011;17384;51.214;9.202;2023-08-31T10:46:49;4.78;;;2.78;;
30617;SDS011;17384;51.214;9.202;2023-08-31T10:49:15;4.13;;;2.28;;
30617;SDS011;17384;51.214;9.202;2023-08-31T10:51:44;6.50;;;3.25;;
30617;SDS011;17384;51.214;9.202;2023-08-31T10:59:25;5.57;;;2.83;;
30617;SDS011;17384;51.214;9.202;2023-08-31T11:01:52;5.72;;;3.28;;
30617;SDS011;17384;51.214;9.202;2023-08-31T11:04:24;3.83;;;2.33;;
30617;SDS011;17384;51.214;9.202;2023-08-31T11:09:38;3.30;;;2.88;;
30617;SDS011;17384;51.214;9.202;2023-08-31T11:12:04;5.85;;;2.63;;
30617;SDS011;17384;51.214;9.202;2023-08-31T11:14:30;5.65;;;2.83;;
30617;SDS011;17384;51.214;9.202;2023-08-31T11:16:55;5.93;;;2.45;;
30617;SDS011;17384;51.214;9.202;2023-08-31T11:19:21;4.80;;;2.40;;
30617;SDS011;17384;51.214;9.202;2023-08-31T11:21:47;4.10;;;2.30;;
30617;SDS011;17384;51.214;9.202;2023-08-31T11:24:13;4.28;;;2.10;;
30617;SDS011;17384;51.214;9.202;2023-08-31T11:26:39;5.78;;;2.10;;
30617;SDS011;17384;51.214;9.202;2023-08-31T11:29:08;3.33;;;2.30;;
30617;SDS011;17384;51.214;9.202;2023-08-31T11:31:40;3.00;;;2.33;;
30617;SDS011;17384;51.214;9.202;2023-08-31T11:34:05;6.10;;;2.90;;
30617;SDS011;17384;51.214;9.202;2023-08-31T11:36:32;5.05;;;2.63;;
30617;SDS011;17384;51.214;9.202;2023-08-31T11:38:58;5.57;;;3.05;;
30617;SDS011;17384;51.214;9.202;2023-08-31T11:41:23;5.30;;;2.35;;
30617;SDS011;17384;51.214;9.202;2023-08-31T11:43:49;3.10;;;2.30;;
30617;SDS011;17384;51.214;9.202;2023-08-31T11:46:16;5.03;;;2.20;;
30617;SDS011;17384;51.214;9.202;2023-08-31T11:48:43;4.85;;;2.55;;
30617;SDS011;17384;51.214;9.202;2023-08-31T11:51:10;4.82;;;3.20;;
30617;SDS011;17384;51.214;9.202;2023-08-31T11:53:36;2.63;;;2.10;;
30617;SDS011;17384;51.214;9.202;2023-08-31T11:56:02;4.20;;;2.90;;
30617;SDS011;17384;51.214;9.202;2023-08-31T11:58:28;4.10;;;2.42;;
30617;SDS011;17384;51.214;9.202;2023-08-31T12:00:57;3.42;;;2.10;;
30617;SDS011;17384;51.214;9.202;2023-08-31T12:03:24;3.17;;;2.10;;
30617;SDS011;17384;51.214;9.202;2023-08-31T12:05:51;2.65;;;2.10;;
30617;SDS011;17384;51.214;9.202;2023-08-31T12:08:26;5.55;;;2.10;;
30617;SDS011;17384;51.214;9.202;2023-08-31T12:10:52;3.97;;;2.13;;
30617;SDS011;17384;51.214;9.202;2023-08-31T12:13:18;4.68;;;2.10;;
30617;SDS011;17384;51.214;9.202;2023-08-31T12:15:44;5.85;;;2.40;;
30617;SDS011;17384;51.214;9.202;2023-08-31T12:18:11;3.53;;;2.20;;
30617;SDS011;17384;51.214;9.202;2023-08-31T12:20:44;3.45;;;2.60;;
30617;SDS011;17384;51.214;9.202;2023-08-31T12:23:10;6.15;;;2.30;;
30617;SDS011;17384;51.214;9.202;2023-08-31T12:25:36;5.18;;;2.22;;
30617;SDS011;17384;51.214;9.202;2023-08-31T12:28:01;4.55;;;2.42;;
30617;SDS011;17384;51.214;9.202;2023-08-31T12:30:28;7.05;;;2.97;;
30617;SDS011;17384;51.214;9.202;2023-08-31T12:32:54;3.97;;;2.08;;
30617;SDS011;17384;51.214;9.202;2023-08-31T12:35:19;4.38;;;1.90;;
30617;SDS011;17384;51.214;9.202;2023-08-31T12:37:46;4.55;;;2.10;;
30617;SDS011;17384;51.214;9.202;2023-08-31T12:40:11;5.78;;;1.77;;
30617;SDS011;17384;51.214;9.202;2023-08-31T12:42:37;2.78;;;1.88;;
30617;SDS011;17384;51.214;9.202;2023-08-31T12:45:03;6.72;;;1.95;;
30617;SDS011;17384;51.214;9.202;2023-08-31T12:47:30;2.78;;;1.70;;
30617;SDS011;17384;51.214;9.202;2023-08-31T12:49:56;5.55;;;1.65;;
30617;SDS011;17384;51.214;9.202;2023-08-31T12:52:22;4.30;;;1.52;;
30617;SDS011;17384;51.214;9.202;2023-08-31T12:54:49;3.17;;;1.85;;
30617;SDS011;17384;51.214;9.202;2023-08-31T12:57:14;5.80;;;1.83;;
30617;SDS011;17384;51.214;9.202;2023-08-31T12:59:43;4.60;;;1.50;;
30617;SDS011;17384;51.214;9.202;2023-08-31T13:02:08;5.00;;;2.10;;
30617;SDS011;17384;51.214;9.202;2023-08-31T13:04:37;6.10;;;1.60;;
30617;SDS011;17384;51.214;9.202;2023-08-31T13:07:03;2.72;;;1.55;;
30617;SDS011;17384;51.214;9.202;2023-08-31T13:09:30;2.22;;;1.40;;
30617;SDS011;17384;51.214;9.202;2023-08-31T13:11:56;5.47;;;1.33;;
30617;SDS011;17384;51.214;9.202;2023-08-31T13:14:21;2.50;;;1.27;;
30617;SDS011;17384;51.214;9.202;2023-08-31T13:16:47;3.38;;;1.30;;
30617;SDS011;17384;51.214;9.202;2023-08-31T13:19:13;2.15;;;1.40;;
30617;SDS011;17384;51.214;9.202;2023-08-31T13:21:38;2.33;;;0.98;;
30617;SDS011;17384;51.214;9.202;2023-08-31T13:24:04;1.38;;;1.20;;
30617;SDS011;17384;51.214;9.202;2023-08-31T13:26:29;3.72;;;1.25;;
30617;SDS011;17384;51.214;9.202;2023-08-31T13:28:55;4.47;;;1.17;;
30617;SDS011;17384;51.214;9.202;2023-08-31T13:31:20;2.88;;;1.30;;
30617;SDS011;17384;51.214;9.202;2023-08-31T13:33:46;2.60;;;1.45;;
30617;SDS011;17384;51.214;9.202;2023-08-31T13:36:12;2.00;;;1.00;;
30617;SDS011;17384;51.214;9.202;2023-08-31T13:38:37;4.05;;;1.55;;
30617;SDS011;17384;51.214;9.202;2023-08-31T13:41:03;4.70;;;1.38;;
30617;SDS011;17384;51.214;9.202;2023-08-31T13:43:29;2.13;;;1.40;;
30617;SDS011;17384;51.214;9.202;2023-08-31T13:45:55;4.00;;;1.13;;
30617;SDS011;17384;51.214;9.202;2023-08-31T13:48:20;3.33;;;1.42;;
30617;SDS011;17384;51.214;9.202;2023-08-31T13:50:47;3.97;;;1.35;;
30617;SDS011;17384;51.214;9.202;2023-08-31T13:53:13;1.63;;;1.30;;
30617;SDS011;17384;51.214;9.202;2023-08-31T13:55:39;4.97;;;1.40;;
30617;SDS011;17384;51.214;9.202;2023-08-31T13:58:06;3.75;;;1.23;;
30617;SDS011;17384;51.214;9.202;2023-08-31T14:00:33;3.28;;;1.15;;
30617;SDS011;17384;51.214;9.202;2023-08-31T14:03:03;3.50;;;1.33;;
30617;SDS011;17384;51.214;9.202;2023-08-31T14:05:30;2.90;;;1.48;;
30617;SDS011;17384;51.214;9.202;2023-08-31T14:07:57;7.63;;;1.30;;
30617;SDS011;17384;51.214;9.202;2023-08-31T14:10:24;3.95;;;1.30;;
30617;SDS011;17384;51.214;9.202;2023-08-31T14:12:50;1.95;;;1.20;;
30617;SDS011;17384;51.214;9.202;2023-08-31T14:15:15;3.88;;;1.60;;
30617;SDS011;17384;51.214;9.202;2023-08-31T14:17:41;3.17;;;1.40;;
30617;SDS011;17384;51.214;9.202;2023-08-31T14:20:07;6.45;;;1.88;;
30617;SDS011;17384;51.214;9.202;2023-08-31T14:22:35;3.63;;;1.40;;
30617;SDS011;17384;51.214;9.202;2023-08-31T14:25:01;3.03;;;1.95;;
30617;SDS011;17384;51.214;9.202;2023-08-31T14:27:28;4.25;;;1.55;;
30617;SDS011;17384;51.214;9.202;2023-08-31T14:29:55;3.97;;;1.98;;
30617;SDS011;17384;51.214;9.202;2023-08-31T14:32:24;4.57;;;1.45;;
30617;SDS011;17384;51.214;9.202;2023-08-31T14:34:50;5.35;;;1.58;;
30617;SDS011;17384;51.214;9.202;2023-08-31T14:37:15;1.45;;;1.10;;
30617;SDS011;17384;51.214;9.202;2023-08-31T14:39:41;1.73;;;1.08;;
30617;SDS011;17384;51.214;9.202;2023-08-31T14:42:06;2.72;;;1.48;;
30617;SDS011;17384;51.214;9.202;2023-08-31T14:44:32;3.47;;;1.35;;
30617;SDS011;17384;51.214;9.202;2023-08-31T14:46:58;5.03;;;1.33;;
30617;SDS011;17384;51.214;9.202;2023-08-31T14:49:23;4.05;;;1.20;;
30617;SDS011;17384;51.214;9.202;2023-08-31T14:51:52;1.92;;;1.30;;
30617;SDS011;17384;51.214;9.202;2023-08-31T14:54:17;4.50;;;1.30;;